Time;durP1;ratioP1;P1;durP2;ratioP2;P2;SDS_P1;SDS_P2;PMS_P1;PMS_P2;Temp;Humidity;BMP_temperature;BMP_pressure;BME280_temperature;BME280_humidity;BME280_pressure;Samples;Min_cycle;Max_cycle;Signal;HPM_P1;HPM_P2
2022/02/04 00:24:14;;;;;;;18.55;17.63;;;10.10;80.00;;;;;;4974590;28;20035;-86
2022/02/04 00:26:48;;;;;;;17.98;17.08;;;10.10;80.00;;;;;;4953322;29;20046;-85
2022/02/04 00:31:49;;;;;;;17.60;16.80;;;10.10;80.00;;;;;;4956284;28;20486;-85
2022/02/04 00:34:19;;;;;;;18.00;17.15;;;10.10;80.00;;;;;;4962236;28;20487;-85
2022/02/04 00:37:00;;;;;;;17.20;16.40;;;10.10;80.10;;;;;;4956471;28;20051;-86
2022/02/04 00:39:32;;;;;;;;;;;10.10;80.00;;;;;;4968998;28;20035;-86
2022/02/04 00:42:05;;;;;;;17.42;16.63;;;10.10;80.00;;;;;;4954916;29;19925;-86
2022/02/04 00:44:32;;;;;;;17.17;16.38;;;10.10;80.00;;;;;;4951388;29;20027;-86
2022/02/04 00:49:59;;;;;;;17.88;16.88;;;10.10;80.00;;;;;;4949521;28;20038;-85
2022/02/04 00:57:55;;;;;;;17.38;16.58;;;10.10;80.10;;;;;;4955537;28;20050;-86
2022/02/04 01:27:31;;;;;;;17.98;17.17;;;10.10;80.20;;;;;;4959279;28;20047;-86
2022/02/04 01:32:26;;;;;;;18.83;17.92;;;10.20;80.20;;;;;;4941214;28;20043;-85
2022/02/04 01:34:53;;;;;;;18.38;17.50;;;10.10;80.20;;;;;;4953834;28;20058;-86
2022/02/04 01:37:19;;;;;;;18.02;17.23;;;10.20;80.30;;;;;;4950879;28;20035;-87
2022/02/04 01:39:45;;;;;;;18.60;17.70;;;10.10;80.20;;;;;;4942366;29;20403;-86
2022/02/04 01:42:11;;;;;;;18.48;17.58;;;10.10;81.00;;;;;;4954520;28;20039;-86
2022/02/04 01:44:37;;;;;;;17.45;16.65;;;10.20;80.30;;;;;;4953121;29;20032;-86
2022/02/04 01:47:04;;;;;;;18.45;17.55;;;10.20;80.20;;;;;;4946267;28;20517;-86
2022/02/04 01:49:30;;;;;;;18.60;17.73;;;10.20;80.30;;;;;;4954152;29;20046;-86
2022/02/04 01:51:56;;;;;;;19.08;18.08;;;10.20;80.30;;;;;;4954569;29;20039;-86
2022/02/04 01:54:23;;;;;;;18.67;17.77;;;10.20;80.30;;;;;;4954694;29;20038;-86
2022/02/04 01:56:50;;;;;;;18.52;17.63;;;10.20;80.30;;;;;;4954875;28;20058;-86
2022/02/04 01:59:16;;;;;;;18.40;17.50;;;10.20;80.30;;;;;;4951789;29;20522;-85
2022/02/04 02:01:42;;;;;;;19.13;18.23;;;10.20;80.30;;;;;;4954183;28;20047;-86
2022/02/04 02:04:11;;;;;;;18.50;17.70;;;10.20;80.30;;;;;;4952730;29;20035;-86
2022/02/04 02:06:43;;;;;;;18.63;17.73;;;10.30;80.40;;;;;;4967710;28;20032;-85
2022/02/04 02:09:09;;;;;;;19.00;18.10;;;10.20;80.30;;;;;;4939378;29;20035;-86
2022/02/04 02:11:35;;;;;;;18.13;17.27;;;10.20;80.30;;;;;;4954890;29;20035;-85
2022/02/04 02:14:05;;;;;;;18.55;17.65;;;10.30;80.30;;;;;;4950060;29;20043;-85
2022/02/04 02:44:25;;;;;;;17.95;17.15;;;10.30;80.30;;;;;;4876091;29;20041;-85
2022/02/04 02:57:37;;;;;;;18.65;17.75;;;10.30;80.40;;;;;;4877175;29;20102;-87
2022/02/04 03:00:09;;;;;;;18.77;17.88;;;10.30;80.40;;;;;;4873833;29;20041;-86
2022/02/04 03:02:35;;;;;;;18.20;17.40;;;10.30;80.40;;;;;;4868881;29;20045;-86
2022/02/04 03:05:01;;;;;;;18.23;17.42;;;10.40;80.50;;;;;;4868645;29;20397;-86
2022/02/04 03:07:27;;;;;;;19.30;18.20;;;10.30;80.50;;;;;;4868000;29;20461;-84
2022/02/04 03:09:53;;;;;;;18.67;17.77;;;10.30;80.50;;;;;;4869423;29;20040;-86
2022/02/04 03:12:19;;;;;;;18.27;17.48;;;10.40;80.50;;;;;;4889030;29;20052;-86
2022/02/04 03:14:46;;;;;;;18.58;17.70;;;10.40;80.60;;;;;;4913283;29;20413;-86
2022/02/04 03:17:14;;;;;;;19.20;18.30;;;10.40;80.60;;;;;;4951321;28;20050;-86
2022/02/04 03:19:44;;;;;;;19.25;18.35;;;10.40;80.60;;;;;;4946226;28;20047;-87
2022/02/04 03:22:13;;;;;;;19.70;18.70;;;10.40;80.60;;;;;;4943408;28;20379;-87
2022/02/04 03:24:41;;;;;;;18.63;17.73;;;10.40;80.60;;;;;;4949363;28;20047;-86
2022/02/04 03:27:11;;;;;;;18.35;17.52;;;10.40;80.60;;;;;;4940110;29;20063;-86
2022/02/04 03:32:22;;;;;;;18.67;17.77;;;10.40;80.60;;;;;;4946711;28;20043;-87
2022/02/04 03:34:49;;;;;;;19.45;18.55;;;10.40;80.60;;;;;;4948641;29;20031;-86
2022/02/04 03:37:15;;;;;;;18.52;17.70;;;10.40;80.60;;;;;;4949105;28;20028;-85
2022/02/04 03:39:41;;;;;;;18.40;17.60;;;10.40;80.70;;;;;;4952981;29;20038;-86
2022/02/04 03:42:08;;;;;;;18.98;18.08;;;10.40;80.70;;;;;;4951216;29;20035;-85
2022/02/04 03:44:36;;;;;;;19.10;18.20;;;10.40;80.70;;;;;;4940979;28;20043;-86
2022/02/04 03:47:03;;;;;;;19.05;18.15;;;10.40;80.80;;;;;;4956574;28;20035;-85
2022/02/04 03:49:29;;;;;;;18.73;17.83;;;10.40;80.80;;;;;;4958302;28;20035;-86
2022/02/04 03:51:55;;;;;;;18.58;17.67;;;10.40;80.80;;;;;;4956817;29;20055;-85
2022/02/04 03:54:21;;;;;;;18.50;17.60;;;10.40;81.60;;;;;;4946140;29;20046;-86
2022/02/04 03:56:47;;;;;;;18.92;18.02;;;10.40;80.80;;;;;;4955019;29;20042;-85
2022/02/04 03:59:13;;;;;;;19.15;18.25;;;10.40;80.80;;;;;;4946511;29;20383;-85
2022/02/04 04:01:39;;;;;;;18.20;17.40;;;10.40;80.80;;;;;;4953326;28;20046;-86
2022/02/04 04:04:05;;;;;;;18.25;17.45;;;10.40;80.80;;;;;;4947296;29;20043;-85
2022/02/04 04:06:32;;;;;;;18.98;18.08;;;10.40;80.90;;;;;;4949360;29;20043;-86
2022/02/04 04:08:58;;;;;;;19.02;18.13;;;10.40;80.90;;;;;;4956782;29;20050;-86
2022/02/04 04:11:24;;;;;;;18.92;18.02;;;10.40;80.90;;;;;;4955703;28;20054;-86
2022/02/04 04:13:50;;;;;;;19.40;18.50;;;10.40;80.90;;;;;;4949000;29;20047;-86
2022/02/04 04:16:18;;;;;;;19.15;18.25;;;10.40;81.00;;;;;;4950185;28;20058;-86
2022/02/04 04:18:44;;;;;;;19.20;18.30;;;10.50;81.00;;;;;;4953134;29;20027;-85
2022/02/04 04:21:10;;;;;;;18.90;18.00;;;10.50;81.00;;;;;;4956344;29;20043;-86
2022/02/04 04:23:37;;;;;;;18.38;17.55;;;10.50;81.10;;;;;;4955678;29;20042;-86
2022/02/04 04:26:03;;;;;;;18.40;17.60;;;10.40;81.00;;;;;;4950152;29;20043;-85
2022/02/04 04:28:29;;;;;;;18.55;17.70;;;10.50;81.10;;;;;;4946381;29;20040;-86
2022/02/04 04:30:55;;;;;;;18.42;17.58;;;10.50;81.10;;;;;;4955738;28;20493;-86
2022/02/04 04:33:21;;;;;;;18.60;17.70;;;10.40;81.00;;;;;;4956205;29;20096;-86
2022/02/04 04:35:48;;;;;;;19.17;18.23;;;10.50;81.10;;;;;;4945296;28;20059;-86
2022/02/04 04:46:02;;;;;;;18.40;17.60;;;10.50;81.20;;;;;;4942714;28;20047;-86
2022/02/04 05:29:19;;;;;;;18.10;17.30;;;10.40;81.30;;;;;;4952338;28;20075;-86
2022/02/04 05:31:46;;;;;;;18.23;17.42;;;10.40;81.30;;;;;;4946668;28;20046;-86
2022/02/04 05:34:15;;;;;;;18.55;17.65;;;10.40;81.30;;;;;;4942265;29;20038;-86
2022/02/04 05:36:44;;;;;;;18.10;17.30;;;10.40;81.30;;;;;;4940281;28;20039;-85
2022/02/04 05:39:12;;;;;;;17.63;16.77;;;10.50;81.40;;;;;;4954992;29;20379;-86
2022/02/04 05:41:42;;;;;;;17.70;16.90;;;10.50;81.40;;;;;;4953912;29;20038;-86
2022/02/04 05:44:11;;;;;;;18.15;17.35;;;10.50;81.40;;;;;;4953519;28;20066;-85
2022/02/04 05:46:49;;;;;;;17.75;16.95;;;10.50;81.40;;;;;;4947339;28;20043;-91
2022/02/04 05:49:17;;;;;;;17.77;16.98;;;10.50;81.40;;;;;;4952997;28;20027;-93
2022/02/04 05:51:53;;;;;;;18.10;17.30;;;10.60;81.50;;;;;;4951792;28;20199;-90
2022/02/04 05:59:30;;;;;;;18.30;17.50;;;10.60;81.50;;;;;;4956820;28;20046;-92
2022/02/04 06:02:10;;;;;;;18.40;17.60;;;10.60;81.50;;;;;;4950830;28;20047;-92
2022/02/04 06:15:12;;;;;;;18.60;17.70;;;10.60;81.60;;;;;;4954057;28;20026;-92
2022/02/04 06:23:13;;;;;;;18.13;17.27;;;10.60;81.50;;;;;;4914409;29;20044;-92
2022/02/04 06:25:39;;;;;;;18.15;17.35;;;10.60;81.50;;;;;;4913103;29;20213;-92
2022/02/04 06:28:05;;;;;;;17.80;17.00;;;10.70;81.60;;;;;;4921615;29;20044;-91
2022/02/04 06:30:32;;;;;;;17.55;16.75;;;10.70;81.60;;;;;;4912348;29;20036;-85
2022/02/04 06:32:59;;;;;;;18.33;17.52;;;10.70;81.60;;;;;;4912945;29;20032;-85
2022/02/04 06:35:25;;;;;;;18.08;17.25;;;10.70;81.60;;;;;;4902522;29;20145;-86
2022/02/04 06:37:51;;;;;;;18.08;17.27;;;10.70;81.60;;;;;;4880289;29;20103;-86
2022/02/04 06:40:17;;;;;;;17.45;16.65;;;10.70;81.70;;;;;;4912637;29;20044;-85
2022/02/04 06:42:43;;;;;;;17.83;17.02;;;10.70;82.40;;;;;;4912388;29;20055;-86
2022/02/04 06:45:09;;;;;;;21.15;19.35;;;10.70;81.70;;;;;;4911665;29;20036;-86
2022/02/04 06:47:35;;;;;;;19.77;18.77;;;10.70;81.70;;;;;;4913303;29;20043;-86
2022/02/04 06:50:02;;;;;;;19.02;17.85;;;10.70;81.70;;;;;;4912268;29;20032;-85
2022/02/04 06:52:28;;;;;;;17.90;17.10;;;10.70;81.70;;;;;;4912731;29;20472;-85
2022/02/04 06:54:54;;;;;;;18.13;17.23;;;10.70;81.70;;;;;;4910896;29;20047;-85
2022/02/04 06:57:20;;;;;;;19.63;18.25;;;10.70;81.70;;;;;;4897404;29;20055;-85
2022/02/04 06:59:47;;;;;;;18.55;17.65;;;10.70;81.80;;;;;;4922751;29;20043;-85
2022/02/04 07:02:14;;;;;;;18.73;17.75;;;10.70;81.80;;;;;;4965412;28;20035;-85
2022/02/04 07:04:41;;;;;;;19.23;18.25;;;10.70;81.80;;;;;;4951213;29;20027;-85
2022/02/04 07:07:07;;;;;;;18.25;17.35;;;10.70;81.80;;;;;;4950986;29;20031;-86
2022/02/04 07:17:35;;;;;;;18.45;17.60;;;10.70;81.90;;;;;;4953703;28;20297;-86
2022/02/04 07:20:01;;;;;;;18.08;17.27;;;10.70;81.80;;;;;;4951994;28;20062;-86
2022/02/04 07:22:31;;;;;;;17.90;17.00;;;10.70;81.80;;;;;;4951529;29;20038;-86
2022/02/04 07:24:59;;;;;;;18.55;17.65;;;10.70;81.90;;;;;;4952572;29;20108;-86
2022/02/04 07:27:26;;;;;;;17.55;16.75;;;10.70;81.90;;;;;;4952155;28;20035;-86
2022/02/04 07:29:54;;;;;;;18.35;17.50;;;10.70;81.90;;;;;;4951608;29;20031;-86
2022/02/04 07:42:56;;;;;;;17.70;16.90;;;10.70;82.00;;;;;;4957625;28;20505;-83
2022/02/04 07:45:22;;;;;;;18.40;17.50;;;10.70;81.90;;;;;;4949801;28;20055;-84
2022/02/04 07:47:49;;;;;;;19.13;18.13;;;10.70;81.90;;;;;;4952364;29;20390;-83
2022/02/04 07:50:20;;;;;;;17.60;16.80;;;10.70;82.00;;;;;;4950094;29;20035;-83
2022/02/04 07:52:52;;;;;;;;;;;10.80;82.00;;;;;;4950843;28;20047;-84
2022/02/04 07:55:19;;;;;;;18.45;17.45;;;10.70;82.00;;;;;;4949940;28;19910;-84
2022/02/04 07:57:45;;;;;;;19.17;17.75;;;10.70;81.90;;;;;;4934385;29;20054;-84
2022/02/04 08:00:16;;;;;;;18.15;17.25;;;10.80;82.00;;;;;;4949726;28;20035;-83
2022/02/04 08:02:43;;;;;;;18.80;17.85;;;10.80;82.00;;;;;;4951464;28;20094;-86
2022/02/04 08:05:13;;;;;;;17.60;16.80;;;10.80;82.00;;;;;;4953151;28;20047;-83
2022/02/04 08:07:50;;;;;;;18.02;17.23;;;10.80;82.00;;;;;;4950169;28;20043;-83
2022/02/04 08:13:18;;;;;;;17.73;16.92;;;10.80;82.00;;;;;;4953897;29;20035;-83
2022/02/04 08:29:32;;;;;;;18.35;17.50;;;10.80;82.10;;;;;;4919209;29;20036;-83
2022/02/04 08:55:12;;;;;;;18.13;17.27;;;11.00;82.10;;;;;;4862960;29;20099;-86
2022/02/04 09:00:32;;;;;;;17.55;16.75;;;11.00;82.00;;;;;;4875388;29;20187;-86
2022/02/04 09:03:03;;;;;;;18.27;17.27;;;11.10;82.80;;;;;;4880450;29;20547;-86
2022/02/04 09:05:36;;;;;;;18.33;17.52;;;11.10;81.90;;;;;;4900599;29;20053;-88
2022/02/04 09:10:41;;;;;;;19.90;18.58;;;11.20;81.90;;;;;;4883906;29;20033;-87
2022/02/04 09:18:39;;;;;;;18.17;17.33;;;11.20;81.90;;;;;;4942992;28;20497;-87
2022/02/04 09:23:32;;;;;;;18.02;17.23;;;11.20;81.90;;;;;;4961205;28;20039;-86
2022/02/04 09:26:00;;;;;;;18.02;17.23;;;11.30;82.00;;;;;;4956225;28;20043;-85
2022/02/04 09:28:26;;;;;;;18.50;17.65;;;11.30;82.00;;;;;;4953923;29;20035;-83
2022/02/04 09:30:53;;;;;;;18.60;17.70;;;11.30;82.00;;;;;;4952101;28;20038;-83
2022/02/04 09:33:19;;;;;;;18.90;18.00;;;11.30;82.00;;;;;;4953066;29;20039;-86
2022/02/04 09:35:45;;;;;;;18.60;17.75;;;11.30;81.90;;;;;;4934531;28;20646;-85
2022/02/04 09:38:11;;;;;;;19.63;18.73;;;11.40;82.00;;;;;;4954196;29;20051;-87
2022/02/04 09:40:37;;;;;;;19.00;18.10;;;11.40;82.00;;;;;;4950372;29;20053;-87
2022/02/04 09:43:04;;;;;;;19.35;18.45;;;11.40;82.00;;;;;;4951306;29;20367;-86
2022/02/04 09:45:32;;;;;;;18.90;18.00;;;11.40;82.00;;;;;;4951414;28;20035;-84
2022/02/04 09:48:00;;;;;;;19.23;18.33;;;11.40;82.00;;;;;;4945756;29;20075;-83
2022/02/04 09:50:28;;;;;;;19.58;18.67;;;11.40;82.00;;;;;;4953803;28;20036;-83
2022/02/04 10:18:03;;;;;;;19.63;18.73;;;11.90;81.50;;;;;;4956948;28;20042;-87
2022/02/04 10:20:29;;;;;;;;;;;12.00;81.40;;;;;;4968591;28;20389;-86
2022/02/04 10:22:56;;;;;;;18.60;17.70;;;12.10;81.20;;;;;;4946419;29;19910;-82
2022/02/04 10:25:22;;;;;;;18.85;17.95;;;12.10;81.00;;;;;;4950668;28;20038;-83
2022/02/04 10:27:51;;;;;;;19.35;18.45;;;12.20;81.00;;;;;;4949212;29;20043;-83
2022/02/04 10:30:18;;;;;;;19.38;18.48;;;12.40;80.90;;;;;;4963259;28;20055;-82
2022/02/04 10:32:50;;;;;;;19.55;18.65;;;12.60;80.50;;;;;;4952239;29;20031;-84
2022/02/04 10:35:28;;;;;;;20.85;19.85;;;12.80;80.00;;;;;;4952488;28;20058;-85
2022/02/04 10:41:00;;;;;;;20.10;19.20;;;12.90;80.10;;;;;;4951098;28;20031;-83
2022/02/04 10:49:03;;;;;;;20.48;19.52;;;13.10;80.00;;;;;;4940765;28;20031;-82
2022/02/04 10:57:38;;;;;;;1999.90;999.90;;;13.20;79.60;;;;;;4947172;28;20039;-82
2022/02/04 11:00:29;;;;;;;1999.90;999.90;;;13.20;79.60;;;;;;4949243;28;20039;-82
2022/02/04 11:03:05;;;;;;;1999.90;999.90;;;13.20;79.80;;;;;;4962113;28;20038;-82
2022/02/04 11:05:50;;;;;;;1999.90;999.90;;;13.10;79.80;;;;;;4952275;29;20092;-85
2022/02/04 11:35:50;;;;;;;1999.90;999.90;;;13.70;79.20;;;;;;4895546;29;20036;-86
2022/02/04 11:52:33;;;;;;;1999.90;999.90;;;15.10;76.10;;;;;;4952068;29;20044;-85
2022/02/04 11:55:11;;;;;;;1999.90;999.90;;;15.20;76.10;;;;;;4950959;28;20486;-85
2022/02/04 11:57:52;;;;;;;1999.90;999.90;;;15.20;76.00;;;;;;4950525;28;20052;-84
2022/02/04 12:00:22;;;;;;;;;;;15.30;76.10;;;;;;4948583;28;20034;-86
2022/02/04 12:02:52;;;;;;;1999.90;999.90;;;15.30;75.80;;;;;;4943420;29;19907;-85
2022/02/04 12:05:18;;;;;;;1999.90;999.90;;;15.40;75.90;;;;;;4951339;29;20035;-86
2022/02/04 12:07:50;;;;;;;1999.90;999.90;;;15.40;75.70;;;;;;4952686;28;20028;-86
2022/02/04 12:10:16;;;;;;;1999.90;999.90;;;15.30;75.70;;;;;;4954601;28;20040;-86
2022/02/04 12:15:32;;;;;;;1999.90;999.90;;;15.20;76.20;;;;;;4958596;28;20487;-87
2022/02/04 12:18:03;;;;;;;1999.90;999.90;;;15.30;75.90;;;;;;4952155;29;20043;-85
2022/02/04 12:20:47;;;;;;;1999.90;999.90;;;15.50;75.60;;;;;;4954761;29;20038;-87
2022/02/04 12:25:58;;;;;;;;;;;15.80;74.80;;;;;;4951895;28;20057;-85
2022/02/04 12:28:58;;;;;;;1999.90;999.90;;;15.70;74.90;;;;;;4951384;28;19910;-87
2022/02/04 12:31:25;;;;;;;1999.90;999.90;;;15.60;75.10;;;;;;4950761;28;20051;-87
2022/02/04 12:34:11;;;;;;;1999.90;999.90;;;15.40;75.20;;;;;;4954036;29;20038;-87
2022/02/04 12:36:38;;;;;;;1999.90;999.90;;;15.20;75.60;;;;;;4954431;28;20040;-88
2022/02/04 12:39:21;;;;;;;1999.90;999.90;;;15.10;75.90;;;;;;4924173;29;20486;-87
2022/02/04 12:41:49;;;;;;;1999.90;999.90;;;14.90;76.20;;;;;;4951415;29;20050;-88
2022/02/04 12:44:49;;;;;;;1999.90;999.90;;;14.80;76.50;;;;;;4947065;28;20478;-86
2022/02/04 12:47:18;;;;;;;1999.90;999.90;;;14.70;76.60;;;;;;4947351;28;20039;-86
2022/02/04 12:49:46;;;;;;;1999.90;999.90;;;14.60;76.60;;;;;;4952509;28;20047;-86
2022/02/04 12:54:50;;;;;;;1999.90;999.90;;;14.50;76.40;;;;;;4955872;28;20045;-85
2022/02/04 13:07:59;;;;;;;1999.90;999.90;;;14.40;76.30;;;;;;4952916;28;20039;-85
2022/02/04 13:10:26;;;;;;;1999.90;999.90;;;14.50;76.20;;;;;;4951839;29;20038;-85
2022/02/04 13:13:03;;;;;;;1999.90;999.90;;;14.50;76.00;;;;;;4952083;29;20035;-84
2022/02/04 13:15:33;;;;;;;1999.90;999.90;;;14.50;75.80;;;;;;4943186;28;20039;-85
2022/02/04 13:18:06;;;;;;;1999.90;999.90;;;14.60;75.80;;;;;;4967930;28;20074;-85
2022/02/04 13:20:33;;;;;;;1999.90;999.90;;;14.60;75.60;;;;;;4943502;28;20470;-85
2022/02/04 13:23:05;;;;;;;1999.90;999.90;;;14.60;75.60;;;;;;4952042;28;20050;-85
2022/02/04 13:25:32;;;;;;;1999.90;999.90;;;14.60;75.60;;;;;;4952190;29;20031;-85
2022/02/04 13:27:59;;;;;;;1999.90;999.90;;;14.60;75.60;;;;;;4951533;28;20051;-84
2022/02/04 13:30:26;;;;;;;1999.90;999.90;;;14.60;75.50;;;;;;4951138;28;20035;-86
2022/02/04 13:32:52;;;;;;;1999.90;999.90;;;14.70;75.30;;;;;;4952876;29;20034;-85
2022/02/04 13:35:38;;;;;;;1999.90;999.90;;;14.60;75.30;;;;;;4947249;29;20047;-85
2022/02/04 13:38:28;;;;;;;1999.90;999.90;;;14.60;75.30;;;;;;4944263;28;20042;-85
2022/02/04 13:43:36;;;;;;;1999.90;999.90;;;14.50;75.40;;;;;;4951356;28;20027;-84
2022/02/04 13:49:36;;;;;;;1999.90;999.90;;;14.40;75.40;;;;;;4939792;28;20043;-86
2022/02/04 13:51:59;;;;;;;1999.90;999.90;;;14.40;75.40;;;;;;4951276;28;20039;-85
2022/02/04 13:57:57;;;;;;;1999.90;999.90;;;14.30;75.50;;;;;;4955456;28;20039;-84
2022/02/04 14:02:49;;;;;;;1999.90;999.90;;;14.20;75.50;;;;;;4966193;28;20031;-85
2022/02/04 14:05:30;;;;;;;1999.90;999.90;;;14.20;75.50;;;;;;4945424;29;20028;-84
2022/02/04 14:08:11;;;;;;;1999.90;999.90;;;14.20;75.50;;;;;;4942760;29;20040;-85
2022/02/04 14:10:54;;;;;;;1999.90;999.90;;;14.10;75.50;;;;;;4950836;29;20057;-85
2022/02/04 14:13:24;;;;;;;1999.90;999.90;;;14.20;75.50;;;;;;4959781;28;20469;-84
2022/02/04 14:15:59;;;;;;;1999.90;999.90;;;14.10;75.40;;;;;;4949142;28;20027;-85
2022/02/04 14:18:27;;;;;;;1999.90;999.90;;;14.10;75.50;;;;;;4936317;29;20399;-85
2022/02/04 14:20:53;;;;;;;1999.90;999.90;;;14.10;75.80;;;;;;4940012;28;20515;-85
2022/02/04 14:23:19;;;;;;;1999.90;999.90;;;14.10;75.50;;;;;;4954227;29;20035;-84
2022/02/04 14:26:08;;;;;;;1999.90;999.90;;;14.00;75.50;;;;;;4943717;29;20479;-85
2022/02/04 14:58:51;;;;;;;1999.90;999.90;;;13.40;76.50;;;;;;4893209;29;20040;-84
2022/02/04 15:06:27;;;;;;;1999.90;999.90;;;13.20;76.60;;;;;;4890534;29;20044;-85
2022/02/04 15:08:54;;;;;;;1999.90;999.90;;;12.90;76.70;;;;;;4893249;29;20399;-86
2022/02/04 15:11:24;;;;;;;1999.90;999.90;;;12.60;77.10;;;;;;4882276;29;20176;-88
2022/02/04 15:13:50;;;;;;;1999.90;999.90;;;12.20;77.60;;;;;;4879537;29;20083;-89
2022/02/04 15:16:16;;;;;;;1999.90;999.90;;;12.00;78.00;;;;;;4895078;29;20052;-89
2022/02/04 15:18:43;;;;;;;20.65;19.75;;;11.80;78.30;;;;;;4892869;29;20447;-87
2022/02/04 15:21:15;;;;;;;21.58;20.58;;;11.70;78.40;;;;;;4891897;29;20728;-88
2022/02/04 15:23:41;;;;;;;20.42;19.52;;;11.50;78.50;;;;;;4872548;29;20045;-87
2022/02/04 15:26:10;;;;;;;19.95;19.05;;;11.50;78.60;;;;;;4891970;29;20060;-87
2022/02/04 15:31:18;;;;;;;20.27;19.38;;;11.30;78.70;;;;;;4891336;29;20051;-88
2022/02/04 15:33:45;;;;;;;21.00;19.98;;;11.30;78.70;;;;;;4946881;28;20039;-86
2022/02/04 15:36:11;;;;;;;19.83;18.92;;;11.20;78.50;;;;;;4949503;28;20035;-87
2022/02/04 15:38:37;;;;;;;20.05;19.15;;;11.20;78.40;;;;;;4957310;28;20055;-85
2022/02/04 15:41:03;;;;;;;20.30;19.40;;;11.20;78.40;;;;;;4948791;29;20035;-86
2022/02/04 15:43:31;;;;;;;20.25;19.35;;;11.20;78.40;;;;;;4948208;28;20047;-85
2022/02/04 15:49:09;;;;;;;19.95;19.05;;;11.10;78.40;;;;;;4953898;28;20031;-87
2022/02/04 15:54:42;;;;;;;20.25;19.25;;;11.10;78.30;;;;;;4958339;28;20363;-86
2022/02/04 15:57:12;;;;;;;19.88;18.88;;;11.10;78.20;;;;;;4953725;28;20050;-86
2022/02/04 16:02:48;;;;;;;19.60;18.70;;;11.10;78.30;;;;;;4946623;28;20157;-86
2022/02/04 16:05:14;;;;;;;19.42;18.52;;;11.00;78.20;;;;;;4951632;29;20044;-88
2022/02/04 16:07:40;;;;;;;19.92;19.02;;;11.00;78.20;;;;;;4951792;29;20035;-89
2022/02/04 16:10:26;;;;;;;19.65;18.75;;;11.00;78.20;;;;;;4953282;29;20505;-87
2022/02/04 16:13:07;;;;;;;20.25;19.35;;;11.00;78.20;;;;;;4951245;29;20107;-88
2022/02/04 16:15:54;;;;;;;;;;;11.00;78.20;;;;;;4947584;28;20028;-88
2022/02/04 16:18:24;;;;;;;20.05;19.05;;;11.00;78.10;;;;;;4953514;29;19970;-87
2022/02/04 16:21:03;;;;;;;18.25;17.45;;;11.00;78.00;;;;;;4953343;29;20043;-85
2022/02/04 16:23:34;;;;;;;20.38;19.38;;;11.10;78.00;;;;;;4954826;29;20482;-85
2022/02/04 16:28:41;;;;;;;19.95;18.95;;;11.10;78.00;;;;;;4964507;28;20384;-83
2022/02/04 16:31:15;;;;;;;20.20;19.20;;;11.00;77.90;;;;;;4944678;28;20046;-84
2022/02/04 16:33:42;;;;;;;19.77;18.88;;;11.00;78.00;;;;;;4949767;29;20028;-88
2022/02/04 16:36:13;;;;;;;19.75;18.85;;;11.00;78.00;;;;;;4950458;28;20541;-86
2022/02/04 16:38:42;;;;;;;18.58;17.73;;;11.00;78.00;;;;;;4966800;28;20047;-87
2022/02/04 16:41:11;;;;;;;19.63;18.73;;;11.00;78.00;;;;;;4953576;29;20030;-86
2022/02/04 16:43:38;;;;;;;19.75;18.85;;;10.90;78.00;;;;;;4953724;29;20398;-87
2022/02/04 16:46:06;;;;;;;19.50;18.50;;;10.90;78.10;;;;;;4952710;28;20517;-85
2022/02/04 16:48:33;;;;;;;19.80;18.90;;;10.80;78.00;;;;;;4951427;28;20058;-86
2022/02/04 16:51:00;;;;;;;19.95;19.05;;;10.80;78.10;;;;;;4954166;29;20076;-85
2022/02/04 16:53:27;;;;;;;19.75;18.85;;;10.80;78.10;;;;;;4956614;29;20031;-85
2022/02/04 16:55:54;;;;;;;20.95;19.90;;;10.80;77.90;;;;;;4948473;28;20049;-87
2022/02/04 16:58:21;;;;;;;19.27;18.38;;;10.70;77.70;;;;;;4947460;29;20398;-87
2022/02/04 17:00:47;;;;;;;20.25;19.35;;;10.70;77.60;;;;;;4946346;28;20031;-87
2022/02/04 17:03:13;;;;;;;20.00;19.10;;;10.60;77.50;;;;;;4951347;29;20053;-88
2022/02/04 17:05:51;;;;;;;23.20;22.00;;;10.60;77.50;;;;;;4955937;29;20027;-84
2022/02/04 17:08:47;;;;;;;20.80;19.80;;;10.60;77.50;;;;;;4940111;29;20403;-86
2022/02/04 17:11:10;;;;;;;21.77;20.55;;;10.60;77.40;;;;;;4949608;29;20047;-87
2022/02/04 17:13:36;;;;;;;20.98;19.98;;;10.60;77.30;;;;;;4945946;29;20501;-85
2022/02/04 17:16:03;;;;;;;21.55;20.55;;;10.60;77.20;;;;;;4951776;28;20035;-85
2022/02/04 17:18:29;;;;;;;1999.90;999.90;;;10.60;77.20;;;;;;4951656;29;20066;-84
2022/02/04 17:20:55;;;;;;;1999.90;999.90;;;10.60;78.10;;;;;;4952984;29;20046;-86
2022/02/04 17:23:30;;;;;;;1999.90;999.90;;;10.60;77.40;;;;;;4968637;28;20035;-87
2022/02/04 17:25:58;;;;;;;1999.90;999.90;;;10.60;77.40;;;;;;4952294;28;20047;-84
2022/02/04 17:28:29;;;;;;;1999.90;999.90;;;10.60;77.30;;;;;;4957620;28;20043;-83
2022/02/04 17:30:55;;;;;;;1999.90;999.90;;;10.60;77.30;;;;;;4961642;28;20046;-84
2022/02/04 17:33:22;;;;;;;1999.90;999.90;;;10.60;77.40;;;;;;4957853;28;20031;-84
2022/02/04 17:35:48;;;;;;;1999.90;999.90;;;10.60;77.40;;;;;;4952398;28;20031;-82
2022/02/04 17:38:14;;;;;;;1999.90;999.90;;;10.60;77.40;;;;;;4951727;28;20062;-86
2022/02/04 17:40:41;;;;;;;1999.90;999.90;;;10.60;77.30;;;;;;4951521;28;20039;-84
2022/02/04 17:43:07;;;;;;;1999.90;999.90;;;10.50;77.20;;;;;;4955562;28;20046;-84
2022/02/04 17:45:33;;;;;;;1999.90;999.90;;;10.50;77.30;;;;;;4955692;28;20035;-85
2022/02/04 17:48:09;;;;;;;1999.90;999.90;;;10.50;77.30;;;;;;4950576;28;20391;-84
2022/02/04 17:50:50;;;;;;;1999.90;999.90;;;10.40;77.30;;;;;;4961583;28;20390;-87
2022/02/04 17:53:18;;;;;;;1999.90;999.90;;;10.40;77.40;;;;;;4954283;28;20047;-85
2022/02/04 17:55:52;;;;;;;1999.90;999.90;;;10.30;77.40;;;;;;4950873;29;20501;-84
2022/02/04 17:58:43;;;;;;;1012.80;512.15;;;10.30;77.40;;;;;;4946306;29;20054;-84
2022/02/04 18:08:59;;;;;;;1999.90;999.90;;;10.10;77.50;;;;;;4876764;29;20560;-84
2022/02/04 18:11:26;;;;;;;1999.90;999.90;;;10.10;77.60;;;;;;4876625;29;20037;-83
2022/02/04 18:13:53;;;;;;;1506.00;755.70;;;10.10;77.60;;;;;;4874834;29;20053;-86
2022/02/04 18:16:19;;;;;;;1999.90;999.90;;;10.00;77.60;;;;;;4875280;29;20045;-86
2022/02/04 18:18:46;;;;;;;1011.67;511.05;;;10.00;77.60;;;;;;4875377;29;20053;-84
2022/02/04 18:21:12;;;;;;;1999.90;999.90;;;10.00;77.70;;;;;;4875503;29;20205;-86
2022/02/04 18:23:38;;;;;;;1999.90;999.90;;;9.90;77.70;;;;;;4877804;29;20033;-85
2022/02/04 18:26:04;;;;;;;1999.90;999.90;;;9.90;77.70;;;;;;4876993;29;20088;-85
2022/02/04 18:28:30;;;;;;;1999.90;999.90;;;9.90;77.70;;;;;;4883264;29;20037;-87
2022/02/04 18:30:56;;;;;;;1999.90;999.90;;;9.80;77.80;;;;;;4884660;29;20033;-87
2022/02/04 18:33:23;;;;;;;1999.90;999.90;;;9.80;77.70;;;;;;4878059;29;20049;-87
2022/02/04 18:35:57;;;;;;;1999.90;999.90;;;9.70;77.80;;;;;;4881831;29;20048;-86
2022/02/04 18:38:45;;;;;;;1999.90;999.90;;;9.70;77.80;;;;;;4875742;29;20044;-85
2022/02/04 18:49:11;;;;;;;1999.90;999.90;;;9.50;77.90;;;;;;4952451;28;20031;-84
2022/02/04 18:59:17;;;;;;;1999.90;999.90;;;9.30;77.90;;;;;;4957881;28;20043;-86
2022/02/04 19:01:44;;;;;;;516.97;266.00;;;9.30;78.00;;;;;;4951174;28;20039;-85
2022/02/04 19:04:15;;;;;;;516.55;265.73;;;9.20;78.00;;;;;;4972452;28;20047;-85
2022/02/04 19:06:46;;;;;;;21.48;20.48;;;9.20;78.10;;;;;;4954860;28;20027;-85
2022/02/04 19:09:12;;;;;;;21.63;20.63;;;9.20;78.10;;;;;;4942723;29;20051;-86
2022/02/04 19:11:46;;;;;;;515.45;264.75;;;9.10;78.10;;;;;;4953197;28;20046;-88
2022/02/04 19:14:17;;;;;;;21.20;20.17;;;9.10;78.10;;;;;;4952763;29;20398;-87
2022/02/04 19:16:57;;;;;;;;;;;9.10;78.10;;;;;;4952130;28;20037;-86
2022/02/04 19:22:16;;;;;;;21.67;20.65;;;9.00;78.10;;;;;;4953328;28;20035;-87
2022/02/04 19:24:45;;;;;;;21.85;20.85;;;8.90;78.10;;;;;;4947198;29;20466;-87
2022/02/04 19:27:11;;;;;;;22.33;21.23;;;8.90;78.20;;;;;;4949794;29;20031;-85
2022/02/04 19:29:44;;;;;;;21.73;20.67;;;8.80;78.20;;;;;;4952358;29;20043;-85
2022/02/04 19:32:11;;;;;;;21.92;20.92;;;8.80;78.30;;;;;;4952301;28;20051;-86
2022/02/04 19:34:37;;;;;;;22.13;21.02;;;8.70;78.30;;;;;;4950784;29;20035;-87
2022/02/04 19:37:04;;;;;;;21.13;20.13;;;8.70;78.30;;;;;;4952578;28;20042;-87
2022/02/04 19:39:30;;;;;;;20.67;19.67;;;8.70;78.40;;;;;;4967886;28;20864;-87
2022/02/04 19:42:07;;;;;;;21.33;20.33;;;8.70;78.30;;;;;;4952605;28;20043;-86
2022/02/04 19:44:35;;;;;;;21.67;20.58;;;8.60;78.30;;;;;;4952476;28;20051;-87
2022/02/04 19:47:08;;;;;;;22.33;21.17;;;8.60;78.30;;;;;;4951224;28;20042;-88